Coal Hollow, Illinois
Current Conditions -  °F | °C
As of 8:35 AM on Saturday 25 Oct 2014 (Local Time) from KVYS Reporting Station
Haze Haze  
Wind Chill: 57°   Ceiling: 400
Heat Index: 57°   Visibility: 1.5mi
Dew Point: 56°   Wind: 9mph
Humidity: 97%   Direction: 290°WNW
Pressure: 29.99"   Gusts: NA
Location:  41.3609°N, 89.3981°W
Report Text: KVYS 251335Z AUTO 29008KT 1 1/2SM BR OVC004 14/13 A2999 RMK AO2 T01370132
Loading
Personal Weather Stations






























Interactive Weather Map
Tropical Storm Tracking
New forecast layout! Learn more

10-Day Weather Forecast

Advertisements
Track Severe Weather on mobile